createdAt,value
2019-05-03T00:02:16.243Z,10.06
2019-05-03T00:05:25.376Z,10.04
2019-05-03T00:08:08.894Z,9.94
2019-05-03T00:11:19.330Z,9.97
2019-05-03T00:14:01.766Z,9.97
2019-05-03T00:16:52.294Z,9.98
2019-05-03T00:19:36.163Z,9.97
2019-05-03T00:22:25.915Z,9.97
2019-05-03T00:25:09.358Z,9.92
2019-05-03T00:27:59.087Z,9.93
2019-05-03T00:30:42.343Z,9.98
2019-05-03T00:33:32.167Z,9.85
2019-05-03T00:36:33.431Z,9.75
2019-05-03T00:39:41.990Z,9.88
2019-05-03T00:42:28.123Z,9.91
2019-05-03T00:45:18.166Z,9.97
2019-05-03T00:48:01.857Z,9.86
2019-05-03T00:50:51.904Z,9.93
2019-05-03T00:56:24.131Z,9.93
2019-05-03T00:59:13.916Z,9.91
2019-05-03T01:01:57.464Z,9.87
2019-05-03T01:04:47.443Z,9.82
2019-05-03T01:07:31.842Z,9.81
2019-05-03T01:10:22.658Z,9.75
2019-05-03T01:13:06.554Z,9.75
2019-05-03T01:16:15.368Z,9.79
2019-05-03T01:18:58.640Z,9.64
2019-05-03T01:21:48.542Z,9.60
2019-05-03T01:24:32.265Z,9.65
2019-05-03T01:27:22.174Z,9.59
2019-05-03T01:30:05.812Z,9.62
2019-05-03T01:32:55.729Z,9.44
2019-05-03T01:35:38.708Z,9.56
2019-05-03T01:38:28.448Z,9.58
2019-05-03T01:41:12.334Z,9.50
2019-05-03T01:44:02.096Z,9.54
2019-05-03T01:46:44.482Z,9.62
2019-05-03T01:49:53.287Z,9.60
2019-05-03T01:52:38.437Z,9.59
2019-05-03T01:55:47.376Z,9.61
2019-05-03T01:58:31.896Z,9.60
2019-05-03T02:07:42.163Z,9.64
2019-05-03T02:10:32.210Z,9.55
2019-05-03T02:13:15.868Z,9.53
2019-05-03T02:19:07.456Z,9.47
2019-05-03T02:21:57.233Z,9.49
2019-05-03T02:24:39.182Z,9.42
2019-05-03T02:27:28.909Z,9.51
2019-05-03T02:30:14.180Z,9.52
2019-05-03T02:32:56.539Z,9.50
2019-05-03T02:35:46.344Z,9.37
2019-05-03T02:38:36.155Z,9.51
2019-05-03T02:41:26.009Z,9.46
2019-05-03T02:47:35.683Z,9.44
2019-05-03T02:50:25.990Z,9.50
2019-05-03T02:53:08.796Z,9.45
2019-05-03T02:59:00.374Z,9.31
2019-05-03T03:04:42.653Z,9.15
2019-05-03T03:07:33.115Z,9.17
2019-05-03T03:10:22.862Z,9.16
2019-05-03T03:16:26.905Z,9.08
2019-05-03T03:22:55.622Z,9.03
2019-05-03T03:25:39.805Z,9.03
2019-05-03T03:28:29.912Z,8.90
2019-05-03T03:34:39.533Z,9.02
2019-05-03T03:38:08.938Z,8.98
2019-05-03T03:40:55.525Z,8.98
2019-05-03T03:44:16.895Z,8.97
2019-05-03T03:46:59.495Z,9.03
2019-05-03T03:50:01.504Z,8.93
2019-05-03T03:52:45.232Z,9.00
2019-05-03T03:55:56.400Z,9.09
2019-05-03T03:58:40.311Z,8.94
2019-05-03T04:01:30.054Z,9.02
2019-05-03T04:04:12.306Z,9.03
2019-05-03T04:07:02.273Z,8.99
2019-05-03T04:09:52.276Z,8.98
2019-05-03T04:12:35.320Z,8.89
2019-05-03T04:16:05.369Z,8.85
2019-05-03T04:19:06.001Z,8.69
2019-05-03T04:21:56.637Z,8.67
2019-05-03T04:24:46.535Z,8.64
2019-05-03T04:27:36.594Z,8.63
2019-05-03T04:30:27.990Z,8.58
2019-05-03T04:33:10.571Z,8.39
2019-05-03T04:36:00.514Z,8.46
2019-05-03T04:38:45.200Z,8.47
2019-05-03T04:41:27.696Z,8.42
2019-05-03T04:44:10.213Z,8.38
2019-05-03T04:47:00.873Z,8.35
2019-05-03T04:49:50.604Z,8.38
2019-05-03T04:52:21.254Z,8.27
2019-05-03T04:55:11.127Z,8.32
2019-05-03T04:57:55.890Z,8.33
2019-05-03T05:00:46.548Z,8.27
2019-05-03T05:03:28.855Z,8.37
2019-05-03T05:06:18.630Z,8.36
2019-05-03T05:12:31.235Z,8.36
2019-05-03T05:15:05.194Z,8.56
2019-05-03T05:21:07.389Z,8.49
2019-05-03T05:24:16.013Z,8.51
2019-05-03T05:30:01.250Z,8.44
2019-05-03T05:32:55.331Z,8.47
2019-05-03T05:35:38.047Z,8.58
2019-05-03T05:38:27.755Z,8.67
2019-05-03T05:41:10.943Z,8.81
2019-05-03T05:44:00.697Z,8.79
2019-05-03T05:52:48.713Z,8.68
2019-05-03T05:58:55.514Z,8.74
2019-05-03T06:04:49.802Z,8.67
2019-05-03T06:07:51.205Z,8.81
2019-05-03T06:10:59.734Z,8.98
2019-05-03T06:17:19.880Z,9.22
2019-05-03T06:20:27.195Z,9.46
2019-05-03T06:23:35.835Z,9.40
2019-05-03T06:26:44.610Z,9.46
2019-05-03T06:29:35.171Z,9.42
2019-05-03T06:35:24.463Z,9.44
2019-05-03T06:38:15.262Z,9.59
2019-05-03T06:40:58.081Z,9.62
2019-05-03T06:43:48.842Z,9.54
2019-05-03T06:46:50.653Z,9.60
2019-05-03T06:49:44.848Z,9.83
2019-05-03T06:52:27.733Z,9.72
2019-05-03T06:55:16.035Z,9.77
2019-05-03T06:57:58.916Z,9.68
2019-05-03T07:04:07.213Z,9.71
2019-05-03T07:07:15.786Z,9.62
2019-05-03T07:10:17.878Z,9.68
2019-05-03T07:13:08.962Z,9.75
2019-05-03T07:15:51.876Z,9.64
2019-05-03T07:18:41.615Z,9.80
2019-05-03T07:21:24.761Z,9.82
2019-05-03T07:24:14.804Z,9.71
2019-05-03T07:26:59.084Z,9.81
2019-05-03T07:29:48.489Z,9.86
2019-05-03T07:32:19.396Z,9.82
2019-05-03T07:35:09.313Z,9.91
2019-05-03T07:37:51.520Z,9.87
2019-05-03T07:40:41.213Z,9.84
2019-05-03T07:43:24.520Z,9.90
2019-05-03T07:46:14.807Z,9.99
2019-05-03T07:48:59.123Z,10.07
2019-05-03T07:51:49.014Z,10.10
2019-05-03T07:54:34.893Z,10.37
2019-05-03T08:00:25.357Z,10.48
2019-05-03T08:03:07.877Z,10.29
2019-05-03T08:05:51.728Z,10.22
2019-05-03T08:08:41.532Z,10.35
2019-05-03T08:11:31.282Z,10.40
2019-05-03T08:14:21.056Z,10.39
2019-05-03T08:17:04.999Z,10.47
2019-05-03T08:19:55.193Z,10.36
2019-05-03T08:22:38.362Z,10.41
2019-05-03T08:25:28.112Z,10.37
2019-05-03T08:28:17.894Z,10.39
2019-05-03T08:31:26.703Z,10.37
2019-05-03T08:34:35.447Z,10.32
2019-05-03T08:37:28.226Z,10.57
2019-05-03T08:43:15.594Z,10.69
2019-05-03T08:46:05.652Z,10.82
2019-05-03T08:48:54.831Z,10.81
2019-05-03T08:51:46.103Z,10.77
2019-05-03T08:54:29.075Z,10.85
2019-05-03T09:00:22.216Z,11.15
2019-05-03T09:03:11.921Z,11.04
2019-05-03T09:05:56.446Z,11.27
2019-05-03T09:08:46.159Z,11.27
2019-05-03T09:11:34.838Z,11.13
2019-05-03T09:14:24.606Z,11.06
2019-05-03T09:17:08.792Z,11.10
2019-05-03T09:19:58.544Z,11.09
2019-05-03T09:22:40.499Z,11.20
2019-05-03T09:25:30.416Z,11.06
2019-05-03T09:28:12.618Z,10.80
2019-05-03T09:31:04.546Z,11.10
2019-05-03T09:33:46.928Z,11.14
2019-05-03T09:36:36.833Z,11.30
2019-05-03T09:39:18.830Z,11.47
2019-05-03T09:42:08.600Z,11.40
2019-05-03T09:44:52.575Z,11.48
2019-05-03T09:47:25.168Z,11.34
2019-05-03T09:50:07.758Z,11.37
2019-05-03T09:52:57.513Z,11.43
2019-05-03T09:55:41.170Z,11.43
2019-05-03T09:58:30.909Z,11.46
2019-05-03T10:01:20.745Z,11.44
2019-05-03T10:04:05.420Z,11.38
2019-05-03T10:09:52.377Z,11.44
2019-05-03T10:12:42.130Z,11.50
2019-05-03T10:21:36.294Z,11.72
2019-05-03T10:24:26.152Z,11.57
2019-05-03T10:27:09.493Z,11.87
2019-05-03T10:30:10.614Z,11.94
2019-05-03T10:32:46.598Z,11.77
2019-05-03T10:35:36.354Z,11.57
2019-05-03T10:38:18.481Z,11.45
2019-05-03T10:41:01.532Z,11.29
2019-05-03T10:43:51.424Z,11.29
2019-05-03T10:46:41.664Z,11.28
2019-05-03T10:55:36.746Z,11.32
2019-05-03T11:04:46.137Z,11.62
2019-05-03T11:07:30.454Z,11.73
2019-05-03T11:10:20.433Z,11.71
2019-05-03T11:13:10.274Z,11.69
2019-05-03T11:16:00.090Z,11.79
2019-05-03T11:18:50.077Z,11.99
2019-05-03T11:21:39.880Z,12.07
2019-05-03T11:24:29.727Z,12.08
2019-05-03T11:30:15.629Z,12.36
2019-05-03T11:36:28.506Z,12.29
2019-05-03T11:39:14.407Z,12.49
2019-05-03T11:42:04.762Z,12.76
2019-05-03T11:44:48.198Z,12.87
2019-05-03T11:50:34.735Z,13.04
2019-05-03T11:53:25.155Z,13.37
2019-05-03T11:56:09.310Z,13.40
2019-05-03T11:58:59.501Z,13.55
2019-05-03T12:02:08.072Z,13.41
2019-05-03T12:04:50.632Z,13.10
2019-05-03T12:07:40.313Z,13.01
2019-05-03T12:10:36.048Z,12.52
2019-05-03T12:16:48.734Z,11.86
2019-05-03T12:19:19.456Z,11.70
2019-05-03T12:21:58.223Z,11.36
2019-05-03T12:24:48.850Z,11.08
2019-05-03T12:27:34.920Z,11.24
2019-05-03T12:30:27.576Z,11.21
2019-05-03T12:33:10.356Z,11.19
2019-05-03T12:35:54.847Z,10.92
2019-05-03T12:38:44.246Z,10.95
2019-05-03T12:41:34.042Z,10.99
2019-05-03T12:44:16.777Z,10.97
2019-05-03T12:47:22.236Z,10.88
2019-05-03T12:50:05.296Z,10.76
2019-05-03T12:52:56.305Z,10.44
2019-05-03T12:55:42.781Z,10.19
2019-05-03T12:58:45.763Z,10.03
2019-05-03T13:01:47.491Z,9.97
2019-05-03T13:10:34.670Z,9.92
2019-05-03T13:13:17.907Z,9.94
2019-05-03T13:16:08.089Z,9.89
2019-05-03T13:18:58.019Z,9.81
2019-05-03T13:21:47.818Z,9.84
2019-05-03T13:24:56.694Z,9.65
2019-05-03T13:27:46.684Z,9.34
2019-05-03T13:30:36.577Z,9.55
2019-05-03T13:33:26.375Z,9.56
2019-05-03T13:36:16.146Z,9.71
2019-05-03T13:39:19.036Z,9.84
2019-05-03T13:42:01.026Z,9.89
2019-05-03T13:44:50.744Z,9.96
2019-05-03T13:47:35.041Z,10.04
2019-05-03T13:50:24.970Z,9.90
2019-05-03T13:53:07.830Z,9.95
2019-05-03T13:56:10.266Z,9.97
2019-05-03T13:58:52.773Z,10.16
2019-05-03T14:01:42.516Z,10.06
2019-05-03T14:04:25.156Z,10.04
2019-05-03T14:07:15.193Z,10.09
2019-05-03T14:09:59.081Z,10.07
2019-05-03T14:12:48.829Z,9.97
2019-05-03T14:15:31.104Z,10.10
2019-05-03T14:24:39.513Z,10.30
2019-05-03T14:27:22.478Z,10.45
2019-05-03T14:33:06.094Z,10.49
2019-05-03T14:41:57.843Z,10.21
2019-05-03T14:44:47.576Z,10.39
2019-05-03T14:47:29.706Z,10.29
2019-05-03T14:53:14.810Z,10.37
2019-05-03T14:56:25.306Z,10.22
2019-05-03T14:59:27.154Z,10.06
2019-05-03T15:02:43.578Z,9.97
2019-05-03T15:05:20.597Z,10.28
2019-05-03T15:08:10.403Z,10.42
2019-05-03T15:11:14.795Z,10.30
2019-05-03T15:13:56.342Z,10.30
2019-05-03T15:19:49.751Z,10.17
2019-05-03T15:22:20.597Z,10.17
2019-05-03T15:25:10.441Z,10.48
2019-05-03T15:28:00.181Z,10.73
2019-05-03T15:30:49.943Z,10.83
2019-05-03T15:33:35.200Z,11.08
2019-05-03T15:36:17.507Z,11.01
2019-05-03T15:39:07.710Z,10.97
2019-05-03T15:48:24.450Z,11.66
2019-05-03T15:54:07.249Z,11.97
2019-05-03T15:56:57.038Z,11.68
2019-05-03T15:59:46.779Z,11.56
2019-05-03T16:02:28.991Z,11.56
2019-05-03T16:05:18.801Z,11.56
2019-05-03T16:08:08.575Z,11.37
2019-05-03T16:10:58.382Z,11.23
2019-05-03T16:13:48.197Z,11.39
2019-05-03T16:16:37.993Z,11.62
2019-05-03T16:19:27.801Z,11.39
2019-05-03T16:22:17.599Z,11.29
2019-05-03T16:31:30.650Z,11.49
2019-05-03T16:34:20.839Z,11.43
2019-05-03T16:37:04.765Z,11.44
2019-05-03T16:39:55.574Z,11.58
2019-05-03T16:42:39.025Z,11.79
2019-05-03T16:45:28.749Z,11.88
2019-05-03T16:48:11.646Z,11.97
2019-05-03T16:51:01.519Z,12.13
2019-05-03T16:53:44.503Z,12.22
2019-05-03T16:56:35.286Z,12.30
2019-05-03T16:59:20.527Z,12.05
2019-05-03T17:02:03.085Z,11.80
2019-05-03T17:05:11.604Z,11.95
2019-05-03T17:08:14.586Z,11.91
2019-05-03T17:10:59.015Z,12.11
2019-05-03T17:13:48.821Z,12.14
2019-05-03T17:16:38.622Z,12.23
2019-05-03T17:19:28.428Z,12.15
2019-05-03T17:22:18.175Z,12.05
2019-05-03T17:25:24.510Z,11.93
2019-05-03T17:28:07.633Z,11.78
2019-05-03T17:30:57.327Z,12.00
2019-05-03T17:33:50.626Z,11.92
2019-05-03T17:36:31.316Z,11.89
2019-05-03T17:39:15.136Z,11.86
2019-05-03T17:48:26.933Z,11.76
2019-05-03T17:51:12.404Z,11.77
2019-05-03T17:57:21.133Z,11.58
2019-05-03T18:02:55.422Z,11.24
2019-05-03T18:09:10.841Z,11.31
2019-05-03T18:12:01.367Z,11.25
2019-05-03T18:14:45.014Z,11.17
2019-05-03T18:17:35.234Z,11.24
2019-05-03T18:20:19.220Z,11.15
2019-05-03T18:23:08.932Z,11.15
2019-05-03T18:25:54.716Z,11.20
2019-05-03T18:28:44.774Z,11.05
2019-05-03T18:31:28.853Z,11.11
2019-05-03T18:34:22.251Z,10.83
2019-05-03T18:37:04.649Z,10.73
2019-05-03T18:39:54.804Z,10.88
2019-05-03T18:46:06.712Z,10.79
2019-05-03T18:48:50.608Z,10.78
2019-05-03T18:51:40.478Z,10.68
2019-05-03T18:54:30.293Z,10.73
2019-05-03T18:57:20.071Z,10.76
2019-05-03T19:00:10.204Z,10.61
2019-05-03T19:02:59.976Z,10.43
2019-05-03T19:09:05.821Z,10.47
2019-05-03T19:12:15.397Z,10.48
2019-05-03T19:14:58.310Z,10.57
2019-05-03T19:18:06.842Z,10.35
2019-05-03T19:20:49.072Z,10.48
2019-05-03T19:23:38.791Z,10.26
2019-05-03T19:26:21.861Z,10.19
2019-05-03T19:29:11.609Z,10.32
2019-05-03T19:31:55.240Z,10.30
2019-05-03T19:34:50.744Z,10.30
2019-05-03T19:37:28.776Z,10.39
2019-05-03T19:40:18.509Z,10.28
2019-05-03T19:43:02.756Z,10.30
2019-05-03T19:45:52.200Z,10.39
2019-05-03T19:48:35.030Z,10.33
2019-05-03T19:51:24.777Z,10.14
2019-05-03T19:54:08.856Z,9.96
2019-05-03T19:56:58.989Z,9.91
2019-05-03T20:00:00.646Z,9.83
2019-05-03T20:09:16.195Z,9.75
2019-05-03T20:12:05.979Z,9.68
2019-05-03T20:14:48.892Z,9.67
2019-05-03T20:17:19.609Z,9.87
2019-05-03T20:20:09.430Z,9.92
2019-05-03T20:23:11.105Z,9.91
2019-05-03T20:25:54.594Z,9.75
2019-05-03T20:28:45.118Z,9.98
2019-05-03T20:31:28.485Z,10.00
2019-05-03T20:34:18.260Z,10.00
2019-05-03T20:37:00.219Z,9.81
2019-05-03T20:39:49.948Z,9.73
2019-05-03T20:42:51.401Z,9.82
2019-05-03T20:51:44.937Z,9.77
2019-05-03T20:54:35.041Z,9.66
2019-05-03T20:57:18.344Z,9.56
2019-05-03T21:03:24.651Z,9.56
2019-05-03T21:06:15.320Z,9.38
2019-05-03T21:09:00.008Z,9.39
2019-05-03T21:11:50.118Z,9.41
2019-05-03T21:14:20.848Z,9.48
2019-05-03T21:17:29.414Z,9.65
2019-05-03T21:20:30.907Z,9.66
2019-05-03T21:29:20.729Z,9.70
2019-05-03T21:32:10.596Z,9.53
2019-05-03T21:35:00.328Z,9.61
2019-05-03T21:37:50.046Z,9.46
2019-05-03T21:40:34.744Z,9.61
2019-05-03T21:43:05.221Z,9.54
2019-05-03T21:46:15.138Z,9.55
2019-05-03T21:49:16.101Z,9.54
2019-05-03T21:51:58.453Z,9.63
2019-05-03T21:54:48.157Z,9.58
2019-05-03T21:57:30.272Z,9.43
2019-05-03T22:00:20.223Z,9.40
2019-05-03T22:03:05.079Z,9.61
2019-05-03T22:05:57.815Z,9.37
2019-05-03T22:08:38.679Z,9.40
2019-05-03T22:14:24.672Z,9.16
2019-05-03T22:17:14.897Z,9.09
2019-05-03T22:26:15.470Z,9.14
2019-05-03T22:28:58.648Z,9.23
2019-05-03T22:31:48.463Z,9.21
2019-05-03T22:34:38.254Z,9.10
2019-05-03T22:37:28.097Z,9.00
2019-05-03T22:40:17.890Z,8.64
2019-05-03T22:43:07.941Z,8.71
2019-05-03T22:45:57.694Z,8.77
2019-05-03T22:48:47.482Z,9.04
2019-05-03T22:51:37.245Z,8.99
2019-05-03T22:54:27.065Z,9.09
2019-05-03T22:57:16.791Z,8.94
2019-05-03T23:00:00.301Z,9.25
2019-05-03T23:02:43.143Z,9.12
2019-05-03T23:05:34.661Z,9.13
2019-05-03T23:08:16.591Z,9.10
2019-05-03T23:14:09.659Z,9.17
2019-05-03T23:16:52.489Z,9.18
2019-05-03T23:22:38.710Z,9.21
2019-05-03T23:25:30.644Z,9.20
2019-05-03T23:28:14.418Z,9.17
2019-05-03T23:31:05.377Z,9.15
2019-05-03T23:33:47.958Z,9.09
2019-05-03T23:36:33.454Z,9.23
2019-05-03T23:39:21.485Z,9.10
2019-05-03T23:42:11.293Z,9.30
2019-05-03T23:45:02.409Z,9.08
2019-05-03T23:47:47.761Z,9.13
2019-05-03T23:50:37.621Z,9.37
2019-05-03T23:53:27.391Z,9.38
2019-05-03T23:59:15.433Z,9.04
